Time,TemperatureF,DewpointF,PressureIn,WindDirection,WindDirectionDegrees,WindSpeedMPH,WindSpeedGustMPH,Humidity,HourlyPrecipIn,Conditions,Clouds,dailyrainin,SoftwareType,DateUTC
2013-03-08 00:01:00,25.0,23.0,-100.00,South,185,14.0,15.0,94,-99.99,,,-99.99,,2013-03-08 06:01:00,
2013-03-08 00:10:00,25.0,24.0,-100.00,SSW,200,12.0,14.0,97,-99.99,,,-99.99,,2013-03-08 06:10:00,
2013-03-08 00:32:00,25.0,24.0,-100.00,SSW,200,12.0,14.0,97,-99.99,,,-99.99,,2013-03-08 06:32:00,
2013-03-08 00:42:00,25.0,24.0,-100.00,SSW,200,12.0,14.0,97,-99.99,,,-99.99,,2013-03-08 06:42:00,
2013-03-08 00:52:00,25.0,24.0,-100.00,SSW,200,12.0,14.0,97,-99.99,,,-99.99,,2013-03-08 06:52:00,
2013-03-08 01:01:00,25.0,24.0,-100.00,SSW,200,12.0,14.0,97,-99.99,,,-99.99,,2013-03-08 07:01:00,
2013-03-08 01:32:00,24.0,24.0,-100.00,SSW,200,12.0,12.0,99,-99.99,,,-99.99,,2013-03-08 07:32:00,
2013-03-08 01:42:00,24.0,24.0,-100.00,SSW,200,12.0,12.0,99,-99.99,,,-99.99,,2013-03-08 07:42:00,
2013-03-08 01:52:00,24.0,24.0,-100.00,SSW,200,12.0,12.0,99,-99.99,,,-99.99,,2013-03-08 07:52:00,
2013-03-08 02:01:00,24.0,24.0,-100.00,SSW,200,12.0,12.0,99,-99.99,,,-99.99,,2013-03-08 08:01:00,
2013-03-08 02:32:00,25.0,25.0,-100.00,SSW,195,10.0,11.0,99,-99.99,,,-99.99,,2013-03-08 08:32:00,
2013-03-08 02:42:00,25.0,25.0,-100.00,SSW,195,10.0,11.0,99,-99.99,,,-99.99,,2013-03-08 08:42:00,
2013-03-08 02:52:00,25.0,25.0,-100.00,SSW,195,10.0,11.0,99,-99.99,,,-99.99,,2013-03-08 08:52:00,
2013-03-08 03:03:00,25.0,25.0,-100.00,SSW,195,10.0,11.0,99,-99.99,,,-99.99,,2013-03-08 09:03:00,
2013-03-08 03:32:00,25.0,25.0,-100.00,SSW,205,9.0,9.0,99,-99.99,,,-99.99,,2013-03-08 09:32:00,
2013-03-08 03:42:00,25.0,25.0,-100.00,SSW,205,9.0,9.0,99,-99.99,,,-99.99,,2013-03-08 09:42:00,
2013-03-08 03:52:00,25.0,25.0,-100.00,SSW,205,9.0,9.0,99,-99.99,,,-99.99,,2013-03-08 09:52:00,
2013-03-08 04:01:00,25.0,25.0,-100.00,SSW,205,9.0,9.0,99,-99.99,,,-99.99,,2013-03-08 10:01:00,
2013-03-08 04:11:00,25.0,25.0,-100.00,SSW,210,8.0,9.0,99,-99.99,,,-99.99,,2013-03-08 10:11:00,
2013-03-08 04:32:00,25.0,25.0,-100.00,SSW,210,8.0,9.0,99,-99.99,,,-99.99,,2013-03-08 10:32:00,
2013-03-08 04:42:00,25.0,25.0,-100.00,SSW,210,8.0,9.0,99,-99.99,,,-99.99,,2013-03-08 10:42:00,
2013-03-08 04:52:00,25.0,25.0,-100.00,SSW,210,8.0,9.0,99,-99.99,,,-99.99,,2013-03-08 10:52:00,
2013-03-08 05:01:00,25.0,25.0,-100.00,SSW,210,8.0,9.0,99,-99.99,,,-99.99,,2013-03-08 11:01:00,
2013-03-08 05:32:00,26.0,25.0,-100.00,South,190,6.0,6.0,99,-99.99,,,-99.99,,2013-03-08 11:32:00,
2013-03-08 05:42:00,26.0,25.0,-100.00,South,190,6.0,6.0,99,-99.99,,,-99.99,,2013-03-08 11:42:00,
2013-03-08 05:52:00,26.0,25.0,-100.00,South,190,6.0,6.0,99,-99.99,,,-99.99,,2013-03-08 11:52:00,
2013-03-08 06:01:00,26.0,25.0,-100.00,South,190,6.0,6.0,99,-99.99,,,-99.99,,2013-03-08 12:01:00,
2013-03-08 06:10:00,25.0,25.0,-100.00,SW,225,7.0,7.0,99,-99.99,,,-99.99,,2013-03-08 12:10:00,
2013-03-08 06:32:00,25.0,25.0,-100.00,SW,225,7.0,7.0,99,-99.99,,,-99.99,,2013-03-08 12:32:00,
2013-03-08 06:43:00,25.0,25.0,-100.00,SW,225,7.0,7.0,99,-99.99,,,-99.99,,2013-03-08 12:43:00,
2013-03-08 06:53:00,25.0,25.0,-100.00,SW,225,7.0,7.0,99,-99.99,,,-99.99,,2013-03-08 12:53:00,
2013-03-08 07:01:00,25.0,25.0,-100.00,SW,225,7.0,7.0,99,-99.99,,,-99.99,,2013-03-08 13:01:00,
2013-03-08 07:10:00,21.0,21.0,-100.00,WSW,240,8.0,8.0,99,-99.99,,,-99.99,,2013-03-08 13:10:00,
2013-03-08 07:32:00,21.0,21.0,-100.00,WSW,240,8.0,8.0,99,-99.99,,,-99.99,,2013-03-08 13:32:00,
2013-03-08 07:42:00,21.0,21.0,-100.00,WSW,240,8.0,8.0,99,-99.99,,,-99.99,,2013-03-08 13:42:00,
2013-03-08 07:52:00,21.0,21.0,-100.00,WSW,240,8.0,8.0,99,-99.99,,,-99.99,,2013-03-08 13:52:00,
2013-03-08 08:02:00,21.0,21.0,-100.00,WSW,240,8.0,8.0,99,-99.99,,,-99.99,,2013-03-08 14:02:00,
2013-03-08 08:10:00,21.0,21.0,-100.00,SW,215,4.0,5.0,99,-99.99,,,-99.99,,2013-03-08 14:10:00,
2013-03-08 08:32:00,21.0,21.0,-100.00,SW,215,4.0,5.0,99,-99.99,,,-99.99,,2013-03-08 14:32:00,
2013-03-08 08:42:00,21.0,21.0,-100.00,SW,215,4.0,5.0,99,-99.99,,,-99.99,,2013-03-08 14:42:00,
2013-03-08 08:52:00,21.0,21.0,-100.00,SW,215,4.0,5.0,99,-99.99,,,-99.99,,2013-03-08 14:52:00,
2013-03-08 09:03:00,21.0,21.0,-100.00,SW,215,4.0,5.0,99,-99.99,,,-99.99,,2013-03-08 15:03:00,
2013-03-08 09:11:00,26.0,26.0,-100.00,SW,225,7.0,9.0,99,-99.99,,,-99.99,,2013-03-08 15:11:00,
2013-03-08 09:32:00,26.0,26.0,-100.00,SW,225,7.0,9.0,99,-99.99,,,-99.99,,2013-03-08 15:32:00,
2013-03-08 09:43:00,26.0,26.0,-100.00,SW,225,7.0,9.0,99,-99.99,,,-99.99,,2013-03-08 15:43:00,
2013-03-08 09:53:00,26.0,26.0,-100.00,SW,225,7.0,9.0,99,-99.99,,,-99.99,,2013-03-08 15:53:00,
2013-03-08 10:01:00,26.0,26.0,-100.00,SW,225,7.0,9.0,99,-99.99,,,-99.99,,2013-03-08 16:01:00,
2013-03-08 10:10:00,28.0,26.0,-100.00,SSW,210,8.0,9.0,95,-99.99,,,-99.99,,2013-03-08 16:10:00,
2013-03-08 10:32:00,28.0,26.0,-100.00,SSW,210,8.0,9.0,95,-99.99,,,-99.99,,2013-03-08 16:32:00,
2013-03-08 10:42:00,28.0,26.0,-100.00,SSW,210,8.0,9.0,95,-99.99,,,-99.99,,2013-03-08 16:42:00,
2013-03-08 10:52:00,28.0,26.0,-100.00,SSW,210,8.0,9.0,95,-99.99,,,-99.99,,2013-03-08 16:52:00,
2013-03-08 11:02:00,28.0,26.0,-100.00,SSW,210,8.0,9.0,95,-99.99,,,-99.99,,2013-03-08 17:02:00,
2013-03-08 11:10:00,30.0,27.0,-100.00,WSW,255,6.0,7.0,89,-99.99,,,-99.99,,2013-03-08 17:10:00,
2013-03-08 11:32:00,30.0,27.0,-100.00,WSW,255,6.0,7.0,89,-99.99,,,-99.99,,2013-03-08 17:32:00,
2013-03-08 11:42:00,30.0,27.0,-100.00,WSW,255,6.0,7.0,89,-99.99,,,-99.99,,2013-03-08 17:42:00,
2013-03-08 11:52:00,30.0,27.0,-100.00,WSW,255,6.0,7.0,89,-99.99,,,-99.99,,2013-03-08 17:52:00,
2013-03-08 12:02:00,30.0,27.0,-100.00,WSW,255,6.0,7.0,89,-99.99,,,-99.99,,2013-03-08 18:02:00,
2013-03-08 12:10:00,31.0,26.0,-100.00,WNW,300,7.0,9.0,82,-99.99,,,-99.99,,2013-03-08 18:10:00,
2013-03-08 12:32:00,31.0,26.0,-100.00,WNW,300,7.0,9.0,82,-99.99,,,-99.99,,2013-03-08 18:32:00,
2013-03-08 12:42:00,31.0,26.0,-100.00,WNW,300,7.0,9.0,82,-99.99,,,-99.99,,2013-03-08 18:42:00,
2013-03-08 12:52:00,31.0,26.0,-100.00,WNW,300,7.0,9.0,82,-99.99,,,-99.99,,2013-03-08 18:52:00,
2013-03-08 13:01:00,31.0,26.0,-100.00,WNW,300,7.0,9.0,82,-99.99,,,-99.99,,2013-03-08 19:01:00,
2013-03-08 13:10:00,32.0,26.0,-100.00,West,265,10.0,11.0,78,-99.99,,,-99.99,,2013-03-08 19:10:00,
2013-03-08 13:32:00,32.0,26.0,-100.00,West,265,10.0,11.0,78,-99.99,,,-99.99,,2013-03-08 19:32:00,
2013-03-08 13:42:00,32.0,26.0,-100.00,West,265,10.0,11.0,78,-99.99,,,-99.99,,2013-03-08 19:42:00,
2013-03-08 13:52:00,32.0,26.0,-100.00,West,265,10.0,11.0,78,-99.99,,,-99.99,,2013-03-08 19:52:00,
2013-03-08 14:01:00,32.0,26.0,-100.00,West,265,10.0,11.0,78,-99.99,,,-99.99,,2013-03-08 20:01:00,
2013-03-08 14:32:00,32.0,26.0,-100.00,WSW,250,9.0,10.0,79,-99.99,,,-99.99,,2013-03-08 20:32:00,
2013-03-08 14:42:00,32.0,26.0,-100.00,WSW,250,9.0,10.0,79,-99.99,,,-99.99,,2013-03-08 20:42:00,
2013-03-08 14:53:00,32.0,26.0,-100.00,WSW,250,9.0,10.0,79,-99.99,,,-99.99,,2013-03-08 20:53:00,
2013-03-08 15:02:00,32.0,26.0,-100.00,WSW,250,9.0,10.0,79,-99.99,,,-99.99,,2013-03-08 21:02:00,
2013-03-08 15:10:00,32.0,27.0,-100.00,West,260,7.0,9.0,80,-99.99,,,-99.99,,2013-03-08 21:10:00,
2013-03-08 15:33:00,32.0,27.0,-100.00,West,260,7.0,9.0,80,-99.99,,,-99.99,,2013-03-08 21:33:00,
2013-03-08 15:42:00,32.0,27.0,-100.00,West,260,7.0,9.0,80,-99.99,,,-99.99,,2013-03-08 21:42:00,
2013-03-08 15:52:00,32.0,27.0,-100.00,West,260,7.0,9.0,80,-99.99,,,-99.99,,2013-03-08 21:52:00,
2013-03-08 16:01:00,32.0,27.0,-100.00,West,260,7.0,9.0,80,-99.99,,,-99.99,,2013-03-08 22:01:00,
2013-03-08 16:10:00,31.0,26.0,-100.00,NW,310,6.0,6.0,81,-99.99,,,-99.99,,2013-03-08 22:10:00,
2013-03-08 16:32:00,31.0,26.0,-100.00,NW,310,6.0,6.0,81,-99.99,,,-99.99,,2013-03-08 22:32:00,
2013-03-08 16:42:00,31.0,26.0,-100.00,NW,310,6.0,6.0,81,-99.99,,,-99.99,,2013-03-08 22:42:00,
2013-03-08 16:53:00,31.0,26.0,-100.00,NW,310,6.0,6.0,81,-99.99,,,-99.99,,2013-03-08 22:53:00,
2013-03-08 17:01:00,31.0,26.0,-100.00,NW,310,6.0,6.0,81,-99.99,,,-99.99,,2013-03-08 23:01:00,
2013-03-08 17:10:00,29.0,25.0,-100.00,WSW,245,5.0,6.0,83,-99.99,,,-99.99,,2013-03-08 23:10:00,
2013-03-08 17:32:00,29.0,25.0,-100.00,WSW,245,5.0,6.0,83,-99.99,,,-99.99,,2013-03-08 23:32:00,
2013-03-08 17:42:00,29.0,25.0,-100.00,WSW,245,5.0,6.0,83,-99.99,,,-99.99,,2013-03-08 23:42:00,
2013-03-08 17:53:00,29.0,25.0,-100.00,WSW,245,5.0,6.0,83,-99.99,,,-99.99,,2013-03-08 23:53:00,
2013-03-08 18:02:00,29.0,25.0,-100.00,WSW,245,5.0,6.0,83,-99.99,,,-99.99,,2013-03-09 00:02:00,
2013-03-08 18:10:00,27.0,24.0,-100.00,North,10,7.0,8.0,88,-99.99,,,-99.99,,2013-03-09 00:10:00,
2013-03-08 18:32:00,27.0,24.0,-100.00,North,10,7.0,8.0,88,-99.99,,,-99.99,,2013-03-09 00:32:00,
2013-03-08 18:42:00,27.0,24.0,-100.00,North,10,7.0,8.0,88,-99.99,,,-99.99,,2013-03-09 00:42:00,
2013-03-08 18:52:00,27.0,24.0,-100.00,North,10,7.0,8.0,88,-99.99,,,-99.99,,2013-03-09 00:52:00,
2013-03-08 19:01:00,27.0,24.0,-100.00,North,10,7.0,8.0,88,-99.99,,,-99.99,,2013-03-09 01:01:00,
2013-03-08 19:11:00,25.0,24.0,-100.00,NNE,30,4.0,6.0,93,-99.99,,,-99.99,,2013-03-09 01:11:00,
2013-03-08 19:32:00,25.0,24.0,-100.00,NNE,30,4.0,6.0,93,-99.99,,,-99.99,,2013-03-09 01:32:00,
2013-03-08 19:42:00,25.0,24.0,-100.00,NNE,30,4.0,6.0,93,-99.99,,,-99.99,,2013-03-09 01:42:00,
2013-03-08 19:52:00,25.0,24.0,-100.00,NNE,30,4.0,6.0,93,-99.99,,,-99.99,,2013-03-09 01:52:00,
2013-03-08 20:01:00,25.0,24.0,-100.00,NNE,30,4.0,6.0,93,-99.99,,,-99.99,,2013-03-09 02:01:00,
2013-03-08 20:10:00,25.0,23.0,-100.00,ENE,65,4.0,5.0,93,-99.99,,,-99.99,,2013-03-09 02:10:00,
2013-03-08 20:31:00,25.0,23.0,-100.00,ENE,65,4.0,5.0,93,-99.99,,,-99.99,,2013-03-09 02:31:00,
2013-03-08 20:41:00,25.0,23.0,-100.00,ENE,65,4.0,5.0,93,-99.99,,,-99.99,,2013-03-09 02:41:00,
2013-03-08 20:51:00,25.0,23.0,-100.00,ENE,65,4.0,5.0,93,-99.99,,,-99.99,,2013-03-09 02:51:00,
2013-03-08 21:01:00,25.0,23.0,-100.00,ENE,65,4.0,5.0,93,-99.99,,,-99.99,,2013-03-09 03:01:00,
2013-03-08 21:10:00,25.0,23.0,-100.00,NNE,20,2.0,2.0,92,-99.99,,,-99.99,,2013-03-09 03:10:00,
2013-03-08 21:32:00,25.0,23.0,-100.00,NNE,20,2.0,2.0,92,-99.99,,,-99.99,,2013-03-09 03:32:00,
2013-03-08 21:42:00,25.0,23.0,-100.00,NNE,20,2.0,2.0,92,-99.99,,,-99.99,,2013-03-09 03:42:00,
2013-03-08 21:52:00,25.0,23.0,-100.00,NNE,20,2.0,2.0,92,-99.99,,,-99.99,,2013-03-09 03:52:00,
2013-03-08 22:01:00,25.0,23.0,-100.00,NNE,20,2.0,2.0,92,-99.99,,,-99.99,,2013-03-09 04:01:00,
2013-03-08 22:32:00,24.0,23.0,-100.00,WSW,245,4.0,4.0,95,-99.99,,,-99.99,,2013-03-09 04:32:00,
2013-03-08 22:42:00,24.0,23.0,-100.00,WSW,245,4.0,4.0,95,-99.99,,,-99.99,,2013-03-09 04:42:00,
2013-03-08 22:52:00,24.0,23.0,-100.00,WSW,245,4.0,4.0,95,-99.99,,,-99.99,,2013-03-09 04:52:00,
2013-03-08 23:02:00,24.0,23.0,-100.00,WSW,245,4.0,4.0,95,-99.99,,,-99.99,,2013-03-09 05:02:00,
2013-03-08 23:32:00,23.0,23.0,-100.00,WSW,245,5.0,6.0,99,-99.99,,,-99.99,,2013-03-09 05:32:00,
2013-03-08 23:43:00,23.0,23.0,-100.00,WSW,245,5.0,6.0,99,-99.99,,,-99.99,,2013-03-09 05:43:00,
2013-03-08 23:53:00,23.0,23.0,-100.00,WSW,245,5.0,6.0,99,-99.99,,,-99.99,,2013-03-09 05:53:00,